sensor_id;sensor_type;location;lat;lon;timestamp;temperature;humidity
66337;SHT30;53139;45.576;5.304;2022-11-21T00:01:36;4.62;96.23
66337;SHT30;53139;45.576;5.304;2022-11-21T00:04:37;4.65;95.63
66337;SHT30;53139;45.576;5.304;2022-11-21T00:07:37;4.62;95.92
66337;SHT30;53139;45.576;5.304;2022-11-21T00:10:38;4.62;96.52
66337;SHT30;53139;45.576;5.304;2022-11-21T00:13:39;4.55;96.94
66337;SHT30;53139;45.576;5.304;2022-11-21T00:16:39;4.58;96.83
66337;SHT30;53139;45.576;5.304;2022-11-21T00:19:40;4.54;97.06
66337;SHT30;53139;45.576;5.304;2022-11-21T00:22:40;4.62;96.79
66337;SHT30;53139;45.576;5.304;2022-11-21T00:25:40;4.68;96.20
66337;SHT30;53139;45.576;5.304;2022-11-21T00:28:41;4.65;96.56
66337;SHT30;53139;45.576;5.304;2022-11-21T00:31:42;4.72;96.11
66337;SHT30;53139;45.576;5.304;2022-11-21T00:34:42;4.74;95.79
66337;SHT30;53139;45.576;5.304;2022-11-21T00:37:42;4.79;95.70
66337;SHT30;53139;45.576;5.304;2022-11-21T00:40:46;4.76;95.70
66337;SHT30;53139;45.576;5.304;2022-11-21T00:43:46;4.81;95.73
66337;SHT30;53139;45.576;5.304;2022-11-21T00:46:46;4.81;96.69
66337;SHT30;53139;45.576;5.304;2022-11-21T00:49:47;4.81;96.74
66337;SHT30;53139;45.576;5.304;2022-11-21T00:52:47;4.86;96.60
66337;SHT30;53139;45.576;5.304;2022-11-21T00:55:47;4.88;96.45
66337;SHT30;53139;45.576;5.304;2022-11-21T00:58:48;4.91;96.74
66337;SHT30;53139;45.576;5.304;2022-11-21T01:01:48;4.93;96.60
66337;SHT30;53139;45.576;5.304;2022-11-21T01:04:48;4.88;96.84
66337;SHT30;53139;45.576;5.304;2022-11-21T01:07:49;4.93;96.98
66337;SHT30;53139;45.576;5.304;2022-11-21T01:10:50;4.95;97.10
66337;SHT30;53139;45.576;5.304;2022-11-21T01:13:51;5.03;96.71
66337;SHT30;53139;45.576;5.304;2022-11-21T01:16:52;5.03;96.49
66337;SHT30;53139;45.576;5.304;2022-11-21T01:19:52;5.05;97.06
66337;SHT30;53139;45.576;5.304;2022-11-21T01:22:52;4.95;97.47
66337;SHT30;53139;45.576;5.304;2022-11-21T01:25:53;5.00;96.67
66337;SHT30;53139;45.576;5.304;2022-11-21T01:28:53;5.06;96.39
66337;SHT30;53139;45.576;5.304;2022-11-21T01:31:54;5.09;96.29
66337;SHT30;53139;45.576;5.304;2022-11-21T01:34:54;5.09;96.68
66337;SHT30;53139;45.576;5.304;2022-11-21T01:37:55;5.09;97.04
66337;SHT30;53139;45.576;5.304;2022-11-21T01:40:55;5.09;96.93
66337;SHT30;53139;45.576;5.304;2022-11-21T01:43:56;5.16;96.74
66337;SHT30;53139;45.576;5.304;2022-11-21T01:46:57;5.06;97.34
66337;SHT30;53139;45.576;5.304;2022-11-21T01:49:57;5.09;97.53
66337;SHT30;53139;45.576;5.304;2022-11-21T01:52:58;5.16;96.96
66337;SHT30;53139;45.576;5.304;2022-11-21T01:55:59;5.06;97.80
66337;SHT30;53139;45.576;5.304;2022-11-21T01:59:02;5.02;98.14
66337;SHT30;53139;45.576;5.304;2022-11-21T02:02:05;5.06;97.83
66337;SHT30;53139;45.576;5.304;2022-11-21T02:05:11;5.06;97.65
66337;SHT30;53139;45.576;5.304;2022-11-21T02:08:20;5.10;97.39
66337;SHT30;53139;45.576;5.304;2022-11-21T02:11:35;5.16;97.69
66337;SHT30;53139;45.576;5.304;2022-11-21T02:14:37;5.26;96.74
66337;SHT30;53139;45.576;5.304;2022-11-21T02:17:39;5.27;96.56
66337;SHT30;53139;45.576;5.304;2022-11-21T02:20:42;5.29;96.94
66337;SHT30;53139;45.576;5.304;2022-11-21T02:27:11;5.36;96.82
66337;SHT30;53139;45.576;5.304;2022-11-21T02:30:11;5.37;96.95
66337;SHT30;53139;45.576;5.304;2022-11-21T02:33:13;5.34;97.16
66337;SHT30;53139;45.576;5.304;2022-11-21T02:36:34;5.34;97.64
66337;SHT30;53139;45.576;5.304;2022-11-21T02:39:36;5.41;97.04
66337;SHT30;53139;45.576;5.304;2022-11-21T02:42:42;5.40;97.68
66337;SHT30;53139;45.576;5.304;2022-11-21T02:45:45;5.31;98.01
66337;SHT30;53139;45.576;5.304;2022-11-21T02:48:45;5.36;97.83
66337;SHT30;53139;45.576;5.304;2022-11-21T02:51:47;5.37;98.02
66337;SHT30;53139;45.576;5.304;2022-11-21T02:54:47;5.43;97.40
66337;SHT30;53139;45.576;5.304;2022-11-21T02:57:48;5.41;97.68
66337;SHT30;53139;45.576;5.304;2022-11-21T03:00:48;5.40;98.00
66337;SHT30;53139;45.576;5.304;2022-11-21T03:03:48;5.38;97.75
66337;SHT30;53139;45.576;5.304;2022-11-21T03:06:49;5.44;97.84
66337;SHT30;53139;45.576;5.304;2022-11-21T03:09:49;5.50;97.22
66337;SHT30;53139;45.576;5.304;2022-11-21T03:12:49;5.51;97.12
66337;SHT30;53139;45.576;5.304;2022-11-21T03:15:50;5.50;97.82
66337;SHT30;53139;45.576;5.304;2022-11-21T03:18:51;5.47;97.81
66337;SHT30;53139;45.576;5.304;2022-11-21T03:21:51;5.52;97.49
66337;SHT30;53139;45.576;5.304;2022-11-21T03:24:51;5.57;97.01
66337;SHT30;53139;45.576;5.304;2022-11-21T03:27:52;5.57;97.27
66337;SHT30;53139;45.576;5.304;2022-11-21T03:30:53;5.57;97.30
66337;SHT30;53139;45.576;5.304;2022-11-21T03:33:53;5.55;97.33
66337;SHT30;53139;45.576;5.304;2022-11-21T03:36:53;5.51;97.95
66337;SHT30;53139;45.576;5.304;2022-11-21T03:39:54;5.47;98.31
66337;SHT30;53139;45.576;5.304;2022-11-21T03:42:54;5.51;98.26
66337;SHT30;53139;45.576;5.304;2022-11-21T03:45:54;5.55;97.07
66337;SHT30;53139;45.576;5.304;2022-11-21T03:48:55;5.57;97.45
66337;SHT30;53139;45.576;5.304;2022-11-21T03:51:55;5.51;98.10
66337;SHT30;53139;45.576;5.304;2022-11-21T03:54:55;5.57;97.65
66337;SHT30;53139;45.576;5.304;2022-11-21T03:57:56;5.57;97.65
66337;SHT30;53139;45.576;5.304;2022-11-21T04:00:56;5.55;97.62
66337;SHT30;53139;45.576;5.304;2022-11-21T04:03:57;5.57;97.94
66337;SHT30;53139;45.576;5.304;2022-11-21T04:06:57;5.55;98.00
66337;SHT30;53139;45.576;5.304;2022-11-21T04:09:58;5.52;98.65
66337;SHT30;53139;45.576;5.304;2022-11-21T04:12:58;5.51;98.50
66337;SHT30;53139;45.576;5.304;2022-11-21T04:15:58;5.54;98.36
66337;SHT30;53139;45.576;5.304;2022-11-21T04:18:59;5.52;98.52
66337;SHT30;53139;45.576;5.304;2022-11-21T04:21:59;5.58;98.39
66337;SHT30;53139;45.576;5.304;2022-11-21T04:24:59;5.64;98.21
66337;SHT30;53139;45.576;5.304;2022-11-21T04:28:01;5.65;97.91
66337;SHT30;53139;45.576;5.304;2022-11-21T04:31:06;5.68;98.07
66337;SHT30;53139;45.576;5.304;2022-11-21T04:34:06;5.64;98.47
66337;SHT30;53139;45.576;5.304;2022-11-21T04:37:07;5.67;98.02
66337;SHT30;53139;45.576;5.304;2022-11-21T04:40:07;5.68;97.65
66337;SHT30;53139;45.576;5.304;2022-11-21T04:43:08;5.68;97.64
66337;SHT30;53139;45.576;5.304;2022-11-21T04:46:08;5.68;97.83
66337;SHT30;53139;45.576;5.304;2022-11-21T04:49:09;5.54;98.77
66337;SHT30;53139;45.576;5.304;2022-11-21T04:52:09;5.64;98.12
66337;SHT30;53139;45.576;5.304;2022-11-21T04:55:11;5.61;98.23
66337;SHT30;53139;45.576;5.304;2022-11-21T04:58:11;5.58;98.23
66337;SHT30;53139;45.576;5.304;2022-11-21T05:01:11;5.51;98.78
66337;SHT30;53139;45.576;5.304;2022-11-21T05:04:12;5.40;98.75
66337;SHT30;53139;45.576;5.304;2022-11-21T05:07:13;5.34;98.68
66337;SHT30;53139;45.576;5.304;2022-11-21T05:10:13;5.20;98.66
66337;SHT30;53139;45.576;5.304;2022-11-21T05:13:14;5.20;98.83
66337;SHT30;53139;45.576;5.304;2022-11-21T05:16:20;5.18;98.95
66337;SHT30;53139;45.576;5.304;2022-11-21T05:19:20;5.23;98.42
66337;SHT30;53139;45.576;5.304;2022-11-21T05:22:20;5.10;99.12
66337;SHT30;53139;45.576;5.304;2022-11-21T05:25:21;5.02;98.93
66337;SHT30;53139;45.576;5.304;2022-11-21T05:28:21;5.00;99.52
66337;SHT30;53139;45.576;5.304;2022-11-21T05:31:22;5.03;99.63
66337;SHT30;53139;45.576;5.304;2022-11-21T05:34:22;5.00;98.71
66337;SHT30;53139;45.576;5.304;2022-11-21T05:37:22;5.02;98.30
66337;SHT30;53139;45.576;5.304;2022-11-21T05:40:24;4.96;97.99
66337;SHT30;53139;45.576;5.304;2022-11-21T05:43:24;5.05;97.59
66337;SHT30;53139;45.576;5.304;2022-11-21T05:46:44;4.99;97.76
66337;SHT30;53139;45.576;5.304;2022-11-21T05:49:44;4.97;97.50
66337;SHT30;53139;45.576;5.304;2022-11-21T05:52:45;4.95;97.33
66337;SHT30;53139;45.576;5.304;2022-11-21T05:55:45;4.88;97.42
66337;SHT30;53139;45.576;5.304;2022-11-21T05:58:46;4.86;97.23
66337;SHT30;53139;45.576;5.304;2022-11-21T06:01:46;4.86;96.71
66337;SHT30;53139;45.576;5.304;2022-11-21T06:05:05;4.86;96.41
66337;SHT30;53139;45.576;5.304;2022-11-21T06:08:06;4.74;96.83
66337;SHT30;53139;45.576;5.304;2022-11-21T06:11:07;4.67;96.85
66337;SHT30;53139;45.576;5.304;2022-11-21T06:14:08;4.62;97.03
66337;SHT30;53139;45.576;5.304;2022-11-21T06:17:08;4.60;97.19
66337;SHT30;53139;45.576;5.304;2022-11-21T06:20:10;4.55;97.51
66337;SHT30;53139;45.576;5.304;2022-11-21T06:23:11;4.54;97.47
66337;SHT30;53139;45.576;5.304;2022-11-21T06:26:14;4.50;97.39
66337;SHT30;53139;45.576;5.304;2022-11-21T06:29:15;4.54;97.49
66337;SHT30;53139;45.576;5.304;2022-11-21T06:32:15;4.48;97.43
66337;SHT30;53139;45.576;5.304;2022-11-21T06:35:16;4.38;97.47
66337;SHT30;53139;45.576;5.304;2022-11-21T06:38:16;4.43;97.57
66337;SHT30;53139;45.576;5.304;2022-11-21T06:41:20;4.41;97.68
66337;SHT30;53139;45.576;5.304;2022-11-21T06:44:21;4.36;97.72
66337;SHT30;53139;45.576;5.304;2022-11-21T06:47:21;4.29;97.73
66337;SHT30;53139;45.576;5.304;2022-11-21T06:50:22;4.34;97.58
66337;SHT30;53139;45.576;5.304;2022-11-21T06:53:22;4.47;96.87
66337;SHT30;53139;45.576;5.304;2022-11-21T06:56:26;4.48;96.29
66337;SHT30;53139;45.576;5.304;2022-11-21T06:59:27;4.51;96.27
66337;SHT30;53139;45.576;5.304;2022-11-21T07:02:27;4.53;96.03
66337;SHT30;53139;45.576;5.304;2022-11-21T07:05:28;4.51;95.35
66337;SHT30;53139;45.576;5.304;2022-11-21T07:08:30;4.50;95.55
66337;SHT30;53139;45.576;5.304;2022-11-21T07:11:30;4.51;95.24
66337;SHT30;53139;45.576;5.304;2022-11-21T07:14:31;4.47;95.51
66337;SHT30;53139;45.576;5.304;2022-11-21T07:17:31;4.57;94.94
66337;SHT30;53139;45.576;5.304;2022-11-21T07:20:31;4.57;95.33
66337;SHT30;53139;45.576;5.304;2022-11-21T07:23:32;4.55;95.70
66337;SHT30;53139;45.576;5.304;2022-11-21T07:26:33;4.60;95.23
66337;SHT30;53139;45.576;5.304;2022-11-21T07:29:33;4.60;95.30
66337;SHT30;53139;45.576;5.304;2022-11-21T07:32:34;4.60;95.10
66337;SHT30;53139;45.576;5.304;2022-11-21T07:35:35;4.60;95.04
66337;SHT30;53139;45.576;5.304;2022-11-21T07:38:35;4.64;94.73
66337;SHT30;53139;45.576;5.304;2022-11-21T07:41:36;4.67;94.95
66337;SHT30;53139;45.576;5.304;2022-11-21T07:44:36;4.69;95.43
66337;SHT30;53139;45.576;5.304;2022-11-21T07:47:36;4.71;94.63
66337;SHT30;53139;45.576;5.304;2022-11-21T07:50:37;4.78;94.62
66337;SHT30;53139;45.576;5.304;2022-11-21T07:53:37;4.89;93.86
66337;SHT30;53139;45.576;5.304;2022-11-21T07:56:38;4.97;94.11
66337;SHT30;53139;45.576;5.304;2022-11-21T07:59:38;5.03;93.56
66337;SHT30;53139;45.576;5.304;2022-11-21T08:02:38;5.10;93.85
66337;SHT30;53139;45.576;5.304;2022-11-21T08:05:41;5.08;94.56
66337;SHT30;53139;45.576;5.304;2022-11-21T08:08:41;5.15;94.61
66337;SHT30;53139;45.576;5.304;2022-11-21T08:11:42;5.22;93.93
66337;SHT30;53139;45.576;5.304;2022-11-21T08:14:42;5.31;92.72
66337;SHT30;53139;45.576;5.304;2022-11-21T08:17:43;5.36;92.24
66337;SHT30;53139;45.576;5.304;2022-11-21T08:20:43;5.46;91.70
66337;SHT30;53139;45.576;5.304;2022-11-21T08:23:43;5.57;91.40
66337;SHT30;53139;45.576;5.304;2022-11-21T08:26:44;5.64;91.29
66337;SHT30;53139;45.576;5.304;2022-11-21T08:29:45;5.68;91.58
66337;SHT30;53139;45.576;5.304;2022-11-21T08:32:45;5.74;91.54
66337;SHT30;53139;45.576;5.304;2022-11-21T08:35:46;5.82;90.80
66337;SHT30;53139;45.576;5.304;2022-11-21T08:38:46;5.93;90.18
66337;SHT30;53139;45.576;5.304;2022-11-21T08:41:46;6.05;91.07
66337;SHT30;53139;45.576;5.304;2022-11-21T08:45:03;6.16;89.72
66337;SHT30;53139;45.576;5.304;2022-11-21T08:48:11;6.16;89.12
66337;SHT30;53139;45.576;5.304;2022-11-21T08:51:11;6.33;88.65
66337;SHT30;53139;45.576;5.304;2022-11-21T08:54:12;6.54;89.89
66337;SHT30;53139;45.576;5.304;2022-11-21T08:57:12;6.54;89.10
66337;SHT30;53139;45.576;5.304;2022-11-21T09:00:13;6.72;89.15
66337;SHT30;53139;45.576;5.304;2022-11-21T09:03:14;6.78;87.40
66337;SHT30;53139;45.576;5.304;2022-11-21T09:06:14;6.86;85.81
66337;SHT30;53139;45.576;5.304;2022-11-21T09:09:14;6.92;85.99
66337;SHT30;53139;45.576;5.304;2022-11-21T09:12:18;7.14;86.64
66337;SHT30;53139;45.576;5.304;2022-11-21T09:15:18;6.97;86.56
66337;SHT30;53139;45.576;5.304;2022-11-21T09:18:37;6.93;85.52
66337;SHT30;53139;45.576;5.304;2022-11-21T09:21:37;7.14;86.94
66337;SHT30;53139;45.576;5.304;2022-11-21T09:24:37;7.24;85.45
66337;SHT30;53139;45.576;5.304;2022-11-21T09:27:38;7.37;84.55
66337;SHT30;53139;45.576;5.304;2022-11-21T09:30:39;7.41;84.42
66337;SHT30;53139;45.576;5.304;2022-11-21T09:33:39;7.47;84.68
66337;SHT30;53139;45.576;5.304;2022-11-21T09:36:40;7.61;85.07
66337;SHT30;53139;45.576;5.304;2022-11-21T09:39:40;7.74;85.27
66337;SHT30;53139;45.576;5.304;2022-11-21T09:46:16;7.97;83.53
66337;SHT30;53139;45.576;5.304;2022-11-21T09:49:16;8.02;83.69
66337;SHT30;53139;45.576;5.304;2022-11-21T09:52:19;8.07;81.82
66337;SHT30;53139;45.576;5.304;2022-11-21T09:55:41;8.07;77.80
66337;SHT30;53139;45.576;5.304;2022-11-21T09:59:21;8.16;78.70
66337;SHT30;53139;45.576;5.304;2022-11-21T10:02:24;8.16;76.53
66337;SHT30;53139;45.576;5.304;2022-11-21T10:05:41;8.12;78.03
66337;SHT30;53139;45.576;5.304;2022-11-21T10:25:35;8.51;79.02
66337;SHT30;53139;45.576;5.304;2022-11-21T10:28:46;8.50;78.60
66337;SHT30;53139;45.576;5.304;2022-11-21T10:31:54;8.54;78.51
66337;SHT30;53139;45.576;5.304;2022-11-21T10:34:58;8.65;78.92
66337;SHT30;53139;45.576;5.304;2022-11-21T10:38:02;8.76;76.07
66337;SHT30;53139;45.576;5.304;2022-11-21T10:41:30;8.96;78.98
66337;SHT30;53139;45.576;5.304;2022-11-21T10:44:36;9.05;79.49
66337;SHT30;53139;45.576;5.304;2022-11-21T10:47:55;9.02;77.68
66337;SHT30;53139;45.576;5.304;2022-11-21T10:54:12;9.28;77.86
66337;SHT30;53139;45.576;5.304;2022-11-21T10:57:42;9.45;78.06
66337;SHT30;53139;45.576;5.304;2022-11-21T11:00:55;9.35;76.87
66337;SHT30;53139;45.576;5.304;2022-11-21T11:07:26;9.35;75.45
66337;SHT30;53139;45.576;5.304;2022-11-21T11:10:27;9.41;76.61
66337;SHT30;53139;45.576;5.304;2022-11-21T11:13:28;9.35;78.05
66337;SHT30;53139;45.576;5.304;2022-11-21T11:16:30;9.45;77.90
66337;SHT30;53139;45.576;5.304;2022-11-21T11:19:31;9.47;78.47
66337;SHT30;53139;45.576;5.304;2022-11-21T11:22:31;9.24;78.11
66337;SHT30;53139;45.576;5.304;2022-11-21T11:25:33;9.10;78.72
66337;SHT30;53139;45.576;5.304;2022-11-21T11:28:35;9.40;79.57
66337;SHT30;53139;45.576;5.304;2022-11-21T11:31:59;9.24;77.55
66337;SHT30;53139;45.576;5.304;2022-11-21T11:35:18;9.14;75.97
66337;SHT30;53139;45.576;5.304;2022-11-21T11:38:23;9.14;75.92
66337;SHT30;53139;45.576;5.304;2022-11-21T11:48:30;9.06;76.36
66337;SHT30;53139;45.576;5.304;2022-11-21T11:51:44;8.99;76.88
66337;SHT30;53139;45.576;5.304;2022-11-21T11:54:54;9.02;74.98
66337;SHT30;53139;45.576;5.304;2022-11-21T11:58:00;8.96;74.88
66337;SHT30;53139;45.576;5.304;2022-11-21T12:01:02;8.96;75.47
66337;SHT30;53139;45.576;5.304;2022-11-21T12:07:28;8.93;75.57
66337;SHT30;53139;45.576;5.304;2022-11-21T12:10:44;8.97;75.07
66337;SHT30;53139;45.576;5.304;2022-11-21T12:21:14;9.14;74.22
66337;SHT30;53139;45.576;5.304;2022-11-21T12:24:16;9.23;74.83
66337;SHT30;53139;45.576;5.304;2022-11-21T12:27:30;9.22;73.72
66337;SHT30;53139;45.576;5.304;2022-11-21T12:38:08;9.34;72.41
66337;SHT30;53139;45.576;5.304;2022-11-21T12:49:03;9.44;69.12
66337;SHT30;53139;45.576;5.304;2022-11-21T12:52:20;9.37;68.85
66337;SHT30;53139;45.576;5.304;2022-11-21T12:55:40;9.38;69.14
66337;SHT30;53139;45.576;5.304;2022-11-21T12:58:44;9.41;68.49
66337;SHT30;53139;45.576;5.304;2022-11-21T13:02:16;9.41;69.33
66337;SHT30;53139;45.576;5.304;2022-11-21T13:05:31;9.37;68.51
66337;SHT30;53139;45.576;5.304;2022-11-21T13:08:35;9.23;70.49
66337;SHT30;53139;45.576;5.304;2022-11-21T13:15:25;8.68;75.22
66337;SHT30;53139;45.576;5.304;2022-11-21T13:18:39;8.41;77.03
66337;SHT30;53139;45.576;5.304;2022-11-21T13:21:44;8.24;78.44
66337;SHT30;53139;45.576;5.304;2022-11-21T13:27:47;7.77;82.53
66337;SHT30;53139;45.576;5.304;2022-11-21T13:30:54;7.52;84.88
66337;SHT30;53139;45.576;5.304;2022-11-21T13:33:56;7.40;85.96
66337;SHT30;53139;45.576;5.304;2022-11-21T13:36:57;7.35;85.95
66337;SHT30;53139;45.576;5.304;2022-11-21T13:43:27;7.13;88.12
66337;SHT30;53139;45.576;5.304;2022-11-21T13:46:57;7.00;89.55
66337;SHT30;53139;45.576;5.304;2022-11-21T13:50:18;7.00;91.98
66337;SHT30;53139;45.576;5.304;2022-11-21T13:57:46;6.69;91.68
66337;SHT30;53139;45.576;5.304;2022-11-21T14:04:07;6.71;92.23
66337;SHT30;53139;45.576;5.304;2022-11-21T14:07:20;6.75;92.18
66337;SHT30;53139;45.576;5.304;2022-11-21T14:10:29;6.68;93.23
66337;SHT30;53139;45.576;5.304;2022-11-21T14:13:31;6.61;94.42
66337;SHT30;53139;45.576;5.304;2022-11-21T14:16:40;6.65;94.20
66337;SHT30;53139;45.576;5.304;2022-11-21T14:19:43;6.67;94.08
66337;SHT30;53139;45.576;5.304;2022-11-21T14:23:03;6.65;96.07
66337;SHT30;53139;45.576;5.304;2022-11-21T14:26:11;6.76;94.18
66337;SHT30;53139;45.576;5.304;2022-11-21T14:29:36;6.74;95.04
66337;SHT30;53139;45.576;5.304;2022-11-21T14:32:37;6.74;94.84
66337;SHT30;53139;45.576;5.304;2022-11-21T14:35:38;6.79;94.21
66337;SHT30;53139;45.576;5.304;2022-11-21T14:38:42;6.75;95.14
66337;SHT30;53139;45.576;5.304;2022-11-21T14:41:47;6.81;94.68
66337;SHT30;53139;45.576;5.304;2022-11-21T14:45:05;6.89;93.70
66337;SHT30;53139;45.576;5.304;2022-11-21T14:48:11;6.89;93.90
66337;SHT30;53139;45.576;5.304;2022-11-21T14:51:15;6.76;95.60
66337;SHT30;53139;45.576;5.304;2022-11-21T14:54:27;6.88;93.98
66337;SHT30;53139;45.576;5.304;2022-11-21T14:57:32;6.75;96.27
66337;SHT30;53139;45.576;5.304;2022-11-21T15:00:35;6.84;94.98
66337;SHT30;53139;45.576;5.304;2022-11-21T15:03:35;6.76;96.41
66337;SHT30;53139;45.576;5.304;2022-11-21T15:06:43;6.74;97.06
66337;SHT30;53139;45.576;5.304;2022-11-21T15:09:44;6.75;97.27
66337;SHT30;53139;45.576;5.304;2022-11-21T15:15:49;6.82;96.76
66337;SHT30;53139;45.576;5.304;2022-11-21T15:18:50;6.85;96.94
66337;SHT30;53139;45.576;5.304;2022-11-21T15:21:53;6.85;96.20
66337;SHT30;53139;45.576;5.304;2022-11-21T15:25:47;6.79;98.28
66337;SHT30;53139;45.576;5.304;2022-11-21T15:28:30;6.81;98.57
66337;SHT30;53139;45.576;5.304;2022-11-21T15:31:30;6.79;98.65
66337;SHT30;53139;45.576;5.304;2022-11-21T15:34:31;6.84;98.58
66337;SHT30;53139;45.576;5.304;2022-11-21T15:37:32;6.86;99.29
66337;SHT30;53139;45.576;5.304;2022-11-21T15:40:33;6.88;99.23
66337;SHT30;53139;45.576;5.304;2022-11-21T15:43:43;6.92;99.58
66337;SHT30;53139;45.576;5.304;2022-11-21T15:46:44;6.89;99.56
66337;SHT30;53139;45.576;5.304;2022-11-21T15:49:45;6.91;99.43
66337;SHT30;53139;45.576;5.304;2022-11-21T15:52:48;6.86;98.95
66337;SHT30;53139;45.576;5.304;2022-11-21T15:55:48;6.89;99.15
66337;SHT30;53139;45.576;5.304;2022-11-21T15:58:48;6.89;99.26
66337;SHT30;53139;45.576;5.304;2022-11-21T16:01:49;6.89;98.38
66337;SHT30;53139;45.576;5.304;2022-11-21T16:04:49;6.91;97.91
66337;SHT30;53139;45.576;5.304;2022-11-21T16:07:49;6.86;95.87
66337;SHT30;53139;45.576;5.304;2022-11-21T16:10:50;6.82;95.70
66337;SHT30;53139;45.576;5.304;2022-11-21T16:13:52;6.79;97.96
66337;SHT30;53139;45.576;5.304;2022-11-21T16:16:53;6.72;97.94
66337;SHT30;53139;45.576;5.304;2022-11-21T16:19:53;6.78;96.92
66337;SHT30;53139;45.576;5.304;2022-11-21T16:22:54;6.71;97.19
66337;SHT30;53139;45.576;5.304;2022-11-21T16:25:54;6.71;97.74
66337;SHT30;53139;45.576;5.304;2022-11-21T16:28:58;6.72;97.05
66337;SHT30;53139;45.576;5.304;2022-11-21T16:31:58;6.74;96.12
66337;SHT30;53139;45.576;5.304;2022-11-21T16:34:59;6.68;96.59
66337;SHT30;53139;45.576;5.304;2022-11-21T16:37:59;6.65;97.23
66337;SHT30;53139;45.576;5.304;2022-11-21T16:41:01;6.67;97.04
66337;SHT30;53139;45.576;5.304;2022-11-21T16:44:03;6.65;96.94
66337;SHT30;53139;45.576;5.304;2022-11-21T16:47:03;6.67;97.21
66337;SHT30;53139;45.576;5.304;2022-11-21T16:50:04;6.68;96.78
66337;SHT30;53139;45.576;5.304;2022-11-21T16:53:05;6.69;96.36
66337;SHT30;53139;45.576;5.304;2022-11-21T16:56:05;6.69;96.32
66337;SHT30;53139;45.576;5.304;2022-11-21T16:59:06;6.69;96.61
66337;SHT30;53139;45.576;5.304;2022-11-21T17:02:06;6.74;96.47
66337;SHT30;53139;45.576;5.304;2022-11-21T17:05:07;6.67;97.06
66337;SHT30;53139;45.576;5.304;2022-11-21T17:08:07;6.75;95.98
66337;SHT30;53139;45.576;5.304;2022-11-21T17:11:17;6.75;96.63
66337;SHT30;53139;45.576;5.304;2022-11-21T17:14:18;6.76;96.25
66337;SHT30;53139;45.576;5.304;2022-11-21T17:17:18;6.82;95.98
66337;SHT30;53139;45.576;5.304;2022-11-21T17:20:18;6.89;95.34
66337;SHT30;53139;45.576;5.304;2022-11-21T17:23:19;6.88;95.76
66337;SHT30;53139;45.576;5.304;2022-11-21T17:26:21;6.81;97.47
66337;SHT30;53139;45.576;5.304;2022-11-21T17:29:22;6.95;95.78
66337;SHT30;53139;45.576;5.304;2022-11-21T17:32:22;6.91;96.47
66337;SHT30;53139;45.576;5.304;2022-11-21T17:35:22;7.00;95.34
66337;SHT30;53139;45.576;5.304;2022-11-21T17:38:23;7.00;95.38
66337;SHT30;53139;45.576;5.304;2022-11-21T17:41:24;6.88;97.25
66337;SHT30;53139;45.576;5.304;2022-11-21T17:44:24;6.81;97.00
66337;SHT30;53139;45.576;5.304;2022-11-21T17:47:25;6.75;97.31
66337;SHT30;53139;45.576;5.304;2022-11-21T17:50:25;6.86;96.61
66337;SHT30;53139;45.576;5.304;2022-11-21T17:53:25;6.84;96.64
66337;SHT30;53139;45.576;5.304;2022-11-21T17:56:28;6.81;97.62
66337;SHT30;53139;45.576;5.304;2022-11-21T17:59:29;7.22;95.20
66337;SHT30;53139;45.576;5.304;2022-11-21T18:02:29;7.16;94.71
66337;SHT30;53139;45.576;5.304;2022-11-21T18:05:30;6.91;97.71
66337;SHT30;53139;45.576;5.304;2022-11-21T18:08:32;6.92;97.80
66337;SHT30;53139;45.576;5.304;2022-11-21T18:11:34;7.12;96.13
66337;SHT30;53139;45.576;5.304;2022-11-21T18:14:34;7.43;94.43
66337;SHT30;53139;45.576;5.304;2022-11-21T18:17:35;7.47;93.47
66337;SHT30;53139;45.576;5.304;2022-11-21T18:20:35;7.31;95.43
66337;SHT30;53139;45.576;5.304;2022-11-21T18:23:36;7.62;92.75
66337;SHT30;53139;45.576;5.304;2022-11-21T18:26:37;7.44;94.25
66337;SHT30;53139;45.576;5.304;2022-11-21T18:29:38;7.46;94.60
66337;SHT30;53139;45.576;5.304;2022-11-21T18:32:38;7.35;95.59
66337;SHT30;53139;45.576;5.304;2022-11-21T18:35:38;7.26;96.90
66337;SHT30;53139;45.576;5.304;2022-11-21T18:38:41;7.31;96.55
66337;SHT30;53139;45.576;5.304;2022-11-21T18:41:42;7.52;94.28
66337;SHT30;53139;45.576;5.304;2022-11-21T18:44:43;7.51;94.84
66337;SHT30;53139;45.576;5.304;2022-11-21T18:47:43;7.47;95.49
66337;SHT30;53139;45.576;5.304;2022-11-21T18:50:45;7.67;93.48
66337;SHT30;53139;45.576;5.304;2022-11-21T18:53:53;7.69;93.71
66337;SHT30;53139;45.576;5.304;2022-11-21T18:56:54;7.51;96.54
66337;SHT30;53139;45.576;5.304;2022-11-21T18:59:56;7.43;97.44
66337;SHT30;53139;45.576;5.304;2022-11-21T19:02:56;7.48;96.54
66337;SHT30;53139;45.576;5.304;2022-11-21T19:05:56;7.47;96.38
66337;SHT30;53139;45.576;5.304;2022-11-21T19:08:57;7.48;96.21
66337;SHT30;53139;45.576;5.304;2022-11-21T19:11:58;7.43;96.70
66337;SHT30;53139;45.576;5.304;2022-11-21T19:14:58;7.41;96.95
66337;SHT30;53139;45.576;5.304;2022-11-21T19:17:58;7.46;96.53
66337;SHT30;53139;45.576;5.304;2022-11-21T19:21:03;7.46;96.58
66337;SHT30;53139;45.576;5.304;2022-11-21T19:24:09;7.40;97.13
66337;SHT30;53139;45.576;5.304;2022-11-21T19:27:12;7.37;98.09
66337;SHT30;53139;45.576;5.304;2022-11-21T19:30:12;7.54;96.17
66337;SHT30;53139;45.576;5.304;2022-11-21T19:33:12;7.50;96.61
66337;SHT30;53139;45.576;5.304;2022-11-21T19:36:19;7.58;95.87
66337;SHT30;53139;45.576;5.304;2022-11-21T19:39:19;7.44;97.46
66337;SHT30;53139;45.576;5.304;2022-11-21T19:42:20;7.47;97.68
66337;SHT30;53139;45.576;5.304;2022-11-21T19:45:20;7.52;97.69
66337;SHT30;53139;45.576;5.304;2022-11-21T19:48:20;7.48;97.95
66337;SHT30;53139;45.576;5.304;2022-11-21T19:51:23;7.58;96.98
66337;SHT30;53139;45.576;5.304;2022-11-21T19:54:24;7.58;96.89
66337;SHT30;53139;45.576;5.304;2022-11-21T19:57:24;7.64;96.35
66337;SHT30;53139;45.576;5.304;2022-11-21T20:00:24;7.65;96.64
66337;SHT30;53139;45.576;5.304;2022-11-21T20:03:25;7.64;96.93
66337;SHT30;53139;45.576;5.304;2022-11-21T20:06:37;7.59;97.16
66337;SHT30;53139;45.576;5.304;2022-11-21T20:09:37;7.62;97.11
66337;SHT30;53139;45.576;5.304;2022-11-21T20:12:37;7.71;96.58
66337;SHT30;53139;45.576;5.304;2022-11-21T20:15:38;7.67;97.37
66337;SHT30;53139;45.576;5.304;2022-11-21T20:18:38;7.64;97.32
66337;SHT30;53139;45.576;5.304;2022-11-21T20:21:39;7.85;95.75
66337;SHT30;53139;45.576;5.304;2022-11-21T20:24:40;8.02;95.15
66337;SHT30;53139;45.576;5.304;2022-11-21T20:27:40;8.05;95.10
66337;SHT30;53139;45.576;5.304;2022-11-21T20:30:41;7.93;95.79
66337;SHT30;53139;45.576;5.304;2022-11-21T20:33:43;7.85;96.94
66337;SHT30;53139;45.576;5.304;2022-11-21T20:36:44;7.88;96.64
66337;SHT30;53139;45.576;5.304;2022-11-21T20:39:46;7.97;95.84
66337;SHT30;53139;45.576;5.304;2022-11-21T20:42:46;7.86;96.79
66337;SHT30;53139;45.576;5.304;2022-11-21T20:45:46;7.81;98.00
66337;SHT30;53139;45.576;5.304;2022-11-21T20:48:47;7.81;97.48
66337;SHT30;53139;45.576;5.304;2022-11-21T20:51:47;7.81;98.08
66337;SHT30;53139;45.576;5.304;2022-11-21T20:54:48;7.85;97.32
66337;SHT30;53139;45.576;5.304;2022-11-21T20:57:49;7.89;97.60